sensor_id;sensor_type;location;lat;lon;timestamp;pressure;altitude;pressure_sealevel;temperature;humidity
11077;BME280;5591;42.626;23.380;2023-03-16T00:01:16;93268.91;;;4.06;100.00
11077;BME280;5591;42.626;23.380;2023-03-16T00:03:43;93259.63;;;4.11;100.00
11077;BME280;5591;42.626;23.380;2023-03-16T00:06:10;93295.03;;;3.82;100.00
11077;BME280;5591;42.626;23.380;2023-03-16T00:08:36;93268.22;;;4.12;100.00
11077;BME280;5591;42.626;23.380;2023-03-16T00:11:04;93263.34;;;3.94;100.00
11077;BME280;5591;42.626;23.380;2023-03-16T00:13:30;93263.03;;;4.12;100.00
11077;BME280;5591;42.626;23.380;2023-03-16T00:15:59;93270.69;;;4.28;100.00
11077;BME280;5591;42.626;23.380;2023-03-16T00:18:29;93275.25;;;4.03;100.00
11077;BME280;5591;42.626;23.380;2023-03-16T00:21:03;93194.25;;;3.40;100.00
11077;BME280;5591;42.626;23.380;2023-03-16T00:23:31;93261.66;;;3.79;100.00
11077;BME280;5591;42.626;23.380;2023-03-16T00:26:01;93286.38;;;3.89;100.00
11077;BME280;5591;42.626;23.380;2023-03-16T00:28:29;93281.31;;;3.73;100.00
11077;BME280;5591;42.626;23.380;2023-03-16T00:31:00;93275.72;;;3.84;100.00
11077;BME280;5591;42.626;23.380;2023-03-16T00:33:28;93277.78;;;3.58;100.00
11077;BME280;5591;42.626;23.380;2023-03-16T00:35:59;93292.97;;;3.69;100.00
11077;BME280;5591;42.626;23.380;2023-03-16T00:38:31;93285.94;;;3.55;100.00
11077;BME280;5591;42.626;23.380;2023-03-16T00:40:59;93296.88;;;3.73;100.00
11077;BME280;5591;42.626;23.380;2023-03-16T00:43:28;93283.53;;;3.76;100.00
11077;BME280;5591;42.626;23.380;2023-03-16T00:45:58;93294.66;;;3.62;100.00
11077;BME280;5591;42.626;23.380;2023-03-16T00:48:32;93295.91;;;3.66;100.00
11077;BME280;5591;42.626;23.380;2023-03-16T00:51:00;93291.25;;;3.62;100.00
11077;BME280;5591;42.626;23.380;2023-03-16T00:53:29;93281.31;;;3.73;100.00
11077;BME280;5591;42.626;23.380;2023-03-16T00:55:56;93315.53;;;3.30;100.00
11077;BME280;5591;42.626;23.380;2023-03-16T00:58:23;93299.75;;;3.48;100.00
11077;BME280;5591;42.626;23.380;2023-03-16T01:00:50;93290.94;;;3.57;100.00
11077;BME280;5591;42.626;23.380;2023-03-16T01:03:18;93289.59;;;3.69;100.00
11077;BME280;5591;42.626;23.380;2023-03-16T01:05:46;93280.81;;;3.39;100.00
11077;BME280;5591;42.626;23.380;2023-03-16T01:08:13;93311.84;;;3.25;100.00
11077;BME280;5591;42.626;23.380;2023-03-16T01:10:40;93303.88;;;3.26;100.00
11077;BME280;5591;42.626;23.380;2023-03-16T01:13:09;93308.72;;;3.29;100.00
11077;BME280;5591;42.626;23.380;2023-03-16T01:15:37;93286.31;;;3.44;100.00
11077;BME280;5591;42.626;23.380;2023-03-16T01:18:04;93298.50;;;3.36;100.00
11077;BME280;5591;42.626;23.380;2023-03-16T01:20:31;93301.75;;;3.30;100.00
11077;BME280;5591;42.626;23.380;2023-03-16T01:23:00;93297.44;;;3.14;100.00
11077;BME280;5591;42.626;23.380;2023-03-16T01:25:27;93291.53;;;3.28;100.00
11077;BME280;5591;42.626;23.380;2023-03-16T01:27:54;93298.03;;;3.24;100.00
11077;BME280;5591;42.626;23.380;2023-03-16T01:30:21;93289.25;;;3.41;100.00
11077;BME280;5591;42.626;23.380;2023-03-16T01:32:48;93292.72;;;3.26;100.00
11077;BME280;5591;42.626;23.380;2023-03-16T01:35:15;93325.03;;;2.99;100.00
11077;BME280;5591;42.626;23.380;2023-03-16T01:37:42;93305.94;;;2.76;100.00
11077;BME280;5591;42.626;23.380;2023-03-16T01:40:11;93297.00;;;2.95;100.00
11077;BME280;5591;42.626;23.380;2023-03-16T01:42:46;93315.31;;;2.93;100.00
11077;BME280;5591;42.626;23.380;2023-03-16T01:48:18;93303.97;;;2.86;100.00
11077;BME280;5591;42.626;23.380;2023-03-16T01:50:46;93305.56;;;2.95;100.00
11077;BME280;5591;42.626;23.380;2023-03-16T01:53:13;93308.03;;;2.89;100.00
11077;BME280;5591;42.626;23.380;2023-03-16T01:55:42;93328.25;;;2.85;100.00
11077;BME280;5591;42.626;23.380;2023-03-16T01:58:09;93310.81;;;2.79;100.00
11077;BME280;5591;42.626;23.380;2023-03-16T02:00:39;93321.66;;;2.75;100.00
11077;BME280;5591;42.626;23.380;2023-03-16T02:03:09;93313.97;;;3.05;100.00
11077;BME280;5591;42.626;23.380;2023-03-16T02:05:41;93323.22;;;3.08;100.00
11077;BME280;5591;42.626;23.380;2023-03-16T02:08:10;93315.97;;;2.87;100.00
11077;BME280;5591;42.626;23.380;2023-03-16T02:10:38;93317.25;;;2.91;100.00
11077;BME280;5591;42.626;23.380;2023-03-16T02:13:07;93342.00;;;3.02;100.00
11077;BME280;5591;42.626;23.380;2023-03-16T02:15:34;93335.03;;;3.02;100.00
11077;BME280;5591;42.626;23.380;2023-03-16T02:18:01;93348.97;;;3.01;100.00
11077;BME280;5591;42.626;23.380;2023-03-16T02:20:35;93353.19;;;2.94;100.00
11077;BME280;5591;42.626;23.380;2023-03-16T02:23:09;93337.78;;;3.09;100.00
11077;BME280;5591;42.626;23.380;2023-03-16T02:25:48;93353.34;;;3.01;100.00
11077;BME280;5591;42.626;23.380;2023-03-16T02:28:24;93353.63;;;3.14;100.00
11077;BME280;5591;42.626;23.380;2023-03-16T02:30:55;93354.09;;;3.17;100.00
11077;BME280;5591;42.626;23.380;2023-03-16T02:33:23;93361.75;;;3.11;100.00
11077;BME280;5591;42.626;23.380;2023-03-16T02:35:50;93352.34;;;3.10;100.00
11077;BME280;5591;42.626;23.380;2023-03-16T02:38:17;93357.09;;;2.82;100.00
11077;BME280;5591;42.626;23.380;2023-03-16T02:40:45;93362.91;;;2.84;100.00
11077;BME280;5591;42.626;23.380;2023-03-16T02:43:21;93365.34;;;2.94;100.00
11077;BME280;5591;42.626;23.380;2023-03-16T02:45:56;93360.16;;;2.78;100.00
11077;BME280;5591;42.626;23.380;2023-03-16T02:48:27;93362.28;;;2.82;100.00
11077;BME280;5591;42.626;23.380;2023-03-16T02:50:57;93296.09;;;2.56;100.00
11077;BME280;5591;42.626;23.380;2023-03-16T02:53:24;93364.22;;;2.88;100.00
11077;BME280;5591;42.626;23.380;2023-03-16T02:55:51;93391.91;;;2.72;100.00
11077;BME280;5591;42.626;23.380;2023-03-16T02:58:18;93372.94;;;2.95;100.00
11077;BME280;5591;42.626;23.380;2023-03-16T03:00:44;93380.75;;;2.79;100.00
11077;BME280;5591;42.626;23.380;2023-03-16T03:03:13;93368.25;;;2.59;100.00
11077;BME280;5591;42.626;23.380;2023-03-16T03:05:39;93375.22;;;2.74;100.00
11077;BME280;5591;42.626;23.380;2023-03-16T03:08:07;93371.81;;;2.90;100.00
11077;BME280;5591;42.626;23.380;2023-03-16T03:10:33;93369.22;;;2.90;100.00
11077;BME280;5591;42.626;23.380;2023-03-16T03:13:00;93385.28;;;2.77;100.00
11077;BME280;5591;42.626;23.380;2023-03-16T03:15:27;93407.28;;;2.57;100.00
11077;BME280;5591;42.626;23.380;2023-03-16T03:17:54;93394.63;;;2.54;100.00
11077;BME280;5591;42.626;23.380;2023-03-16T03:20:22;93403.53;;;2.44;100.00
11077;BME280;5591;42.626;23.380;2023-03-16T03:22:49;93404.66;;;2.41;100.00
11077;BME280;5591;42.626;23.380;2023-03-16T03:25:18;93404.06;;;2.55;100.00
11077;BME280;5591;42.626;23.380;2023-03-16T03:27:46;93405.75;;;2.15;100.00
11077;BME280;5591;42.626;23.380;2023-03-16T03:30:15;93387.66;;;2.15;100.00
11077;BME280;5591;42.626;23.380;2023-03-16T03:32:42;93399.66;;;2.32;100.00
11077;BME280;5591;42.626;23.380;2023-03-16T03:35:11;93401.41;;;2.16;100.00
11077;BME280;5591;42.626;23.380;2023-03-16T03:37:41;93431.28;;;2.02;100.00
11077;BME280;5591;42.626;23.380;2023-03-16T03:40:10;93383.94;;;2.18;100.00
11077;BME280;5591;42.626;23.380;2023-03-16T03:42:38;93396.41;;;2.22;100.00
11077;BME280;5591;42.626;23.380;2023-03-16T03:45:06;93411.91;;;2.14;100.00
11077;BME280;5591;42.626;23.380;2023-03-16T03:47:33;93405.66;;;1.83;100.00
11077;BME280;5591;42.626;23.380;2023-03-16T03:50:00;93411.44;;;2.19;100.00
11077;BME280;5591;42.626;23.380;2023-03-16T03:52:27;93411.75;;;2.16;100.00
11077;BME280;5591;42.626;23.380;2023-03-16T03:54:55;93429.41;;;2.20;100.00
11077;BME280;5591;42.626;23.380;2023-03-16T03:57:22;93424.03;;;2.22;100.00
11077;BME280;5591;42.626;23.380;2023-03-16T03:59:49;93436.78;;;1.99;100.00
11077;BME280;5591;42.626;23.380;2023-03-16T04:02:16;93433.88;;;2.10;100.00
11077;BME280;5591;42.626;23.380;2023-03-16T04:04:43;93442.94;;;2.14;100.00
11077;BME280;5591;42.626;23.380;2023-03-16T04:07:10;93432.75;;;2.05;100.00
11077;BME280;5591;42.626;23.380;2023-03-16T04:09:37;93431.00;;;2.21;100.00
11077;BME280;5591;42.626;23.380;2023-03-16T04:12:06;93431.81;;;2.14;100.00
11077;BME280;5591;42.626;23.380;2023-03-16T04:14:33;93445.25;;;2.25;100.00
11077;BME280;5591;42.626;23.380;2023-03-16T04:17:00;93462.25;;;2.28;100.00
11077;BME280;5591;42.626;23.380;2023-03-16T04:19:29;93441.84;;;2.17;100.00
11077;BME280;5591;42.626;23.380;2023-03-16T04:21:55;93446.47;;;2.05;100.00
11077;BME280;5591;42.626;23.380;2023-03-16T04:24:22;93447.63;;;2.03;100.00
11077;BME280;5591;42.626;23.380;2023-03-16T04:26:49;93455.75;;;2.32;100.00
11077;BME280;5591;42.626;23.380;2023-03-16T04:29:18;93455.88;;;2.14;100.00
11077;BME280;5591;42.626;23.380;2023-03-16T04:31:45;93451.03;;;2.11;100.00
11077;BME280;5591;42.626;23.380;2023-03-16T04:34:12;93458.13;;;2.01;100.00
11077;BME280;5591;42.626;23.380;2023-03-16T04:36:39;93471.56;;;2.05;100.00
11077;BME280;5591;42.626;23.380;2023-03-16T04:39:06;93460.13;;;2.23;100.00
11077;BME280;5591;42.626;23.380;2023-03-16T04:41:34;93469.31;;;2.18;100.00
11077;BME280;5591;42.626;23.380;2023-03-16T04:44:00;93462.31;;;2.02;100.00
11077;BME280;5591;42.626;23.380;2023-03-16T04:46:30;93480.59;;;2.09;100.00
11077;BME280;5591;42.626;23.380;2023-03-16T04:48:58;93450.38;;;2.09;100.00
11077;BME280;5591;42.626;23.380;2023-03-16T04:51:24;93481.03;;;2.38;100.00
11077;BME280;5591;42.626;23.380;2023-03-16T04:53:51;93492.84;;;2.40;100.00
11077;BME280;5591;42.626;23.380;2023-03-16T04:56:18;93498.25;;;2.13;100.00
11077;BME280;5591;42.626;23.380;2023-03-16T04:58:46;93496.03;;;2.26;100.00
11077;BME280;5591;42.626;23.380;2023-03-16T05:01:14;93460.13;;;2.23;100.00
11077;BME280;5591;42.626;23.380;2023-03-16T05:03:44;93408.75;;;1.45;100.00
11077;BME280;5591;42.626;23.380;2023-03-16T05:06:11;93503.66;;;2.28;100.00
11077;BME280;5591;42.626;23.380;2023-03-16T05:08:38;93517.03;;;1.82;100.00
11077;BME280;5591;42.626;23.380;2023-03-16T05:11:05;93503.88;;;2.09;100.00
11077;BME280;5591;42.626;23.380;2023-03-16T05:13:32;93513.34;;;2.33;100.00
11077;BME280;5591;42.626;23.380;2023-03-16T05:15:59;93508.84;;;2.36;100.00
11077;BME280;5591;42.626;23.380;2023-03-16T05:18:26;93504.94;;;2.32;100.00
11077;BME280;5591;42.626;23.380;2023-03-16T05:20:55;93504.81;;;2.49;100.00
11077;BME280;5591;42.626;23.380;2023-03-16T05:23:22;93530.41;;;2.52;100.00
11077;BME280;5591;42.626;23.380;2023-03-16T05:25:50;93519.06;;;2.45;100.00
11077;BME280;5591;42.626;23.380;2023-03-16T05:28:17;93488.91;;;2.28;100.00
11077;BME280;5591;42.626;23.380;2023-03-16T05:30:44;93537.41;;;2.18;100.00
11077;BME280;5591;42.626;23.380;2023-03-16T05:33:11;93528.78;;;2.43;100.00
11077;BME280;5591;42.626;23.380;2023-03-16T05:35:38;93535.59;;;2.52;100.00
11077;BME280;5591;42.626;23.380;2023-03-16T05:38:06;93525.41;;;2.58;100.00
11077;BME280;5591;42.626;23.380;2023-03-16T05:40:34;93458.84;;;1.86;100.00
11077;BME280;5591;42.626;23.380;2023-03-16T05:43:01;93540.31;;;2.15;100.00
11077;BME280;5591;42.626;23.380;2023-03-16T05:45:29;93545.13;;;2.51;100.00
11077;BME280;5591;42.626;23.380;2023-03-16T05:47:55;93553.44;;;2.22;100.00
11077;BME280;5591;42.626;23.380;2023-03-16T05:50:22;93549.75;;;2.32;100.00
11077;BME280;5591;42.626;23.380;2023-03-16T05:52:50;93548.56;;;2.19;100.00
11077;BME280;5591;42.626;23.380;2023-03-16T05:55:19;93549.94;;;2.38;100.00
11077;BME280;5591;42.626;23.380;2023-03-16T05:57:45;93554.06;;;2.16;100.00
11077;BME280;5591;42.626;23.380;2023-03-16T06:00:14;93574.44;;;2.19;100.00
11077;BME280;5591;42.626;23.380;2023-03-16T06:02:45;93562.06;;;2.30;100.00
11077;BME280;5591;42.626;23.380;2023-03-16T06:05:13;93550.16;;;2.12;100.00
11077;BME280;5591;42.626;23.380;2023-03-16T06:07:41;93563.91;;;2.12;100.00
11077;BME280;5591;42.626;23.380;2023-03-16T06:10:10;93575.63;;;1.99;100.00
11077;BME280;5591;42.626;23.380;2023-03-16T06:12:38;93582.78;;;2.05;100.00
11077;BME280;5591;42.626;23.380;2023-03-16T06:15:07;93577.44;;;2.06;100.00
11077;BME280;5591;42.626;23.380;2023-03-16T06:17:35;93565.78;;;2.02;100.00
11077;BME280;5591;42.626;23.380;2023-03-16T06:20:02;93578.34;;;2.23;100.00
11077;BME280;5591;42.626;23.380;2023-03-16T06:22:35;93598.28;;;2.30;100.00
11077;BME280;5591;42.626;23.380;2023-03-16T06:25:02;93596.69;;;2.04;100.00
11077;BME280;5591;42.626;23.380;2023-03-16T06:27:29;93594.38;;;2.26;100.00
11077;BME280;5591;42.626;23.380;2023-03-16T06:29:58;93611.63;;;2.18;100.00
11077;BME280;5591;42.626;23.380;2023-03-16T06:32:25;93605.19;;;2.22;100.00
11077;BME280;5591;42.626;23.380;2023-03-16T06:34:52;93611.84;;;2.24;100.00
11077;BME280;5591;42.626;23.380;2023-03-16T06:37:19;93604.44;;;2.29;100.00
11077;BME280;5591;42.626;23.380;2023-03-16T06:39:46;93638.66;;;2.48;100.00
11077;BME280;5591;42.626;23.380;2023-03-16T06:42:12;93656.41;;;2.10;100.00
11077;BME280;5591;42.626;23.380;2023-03-16T06:44:39;93620.50;;;2.15;100.00
11077;BME280;5591;42.626;23.380;2023-03-16T06:47:08;93635.94;;;2.25;100.00
11077;BME280;5591;42.626;23.380;2023-03-16T06:49:36;93655.72;;;2.33;100.00
11077;BME280;5591;42.626;23.380;2023-03-16T06:52:03;93639.66;;;2.22;100.00
11077;BME280;5591;42.626;23.380;2023-03-16T06:54:29;93641.50;;;2.71;100.00
11077;BME280;5591;42.626;23.380;2023-03-16T06:56:59;93634.88;;;2.68;100.00
11077;BME280;5591;42.626;23.380;2023-03-16T06:59:26;93641.72;;;2.44;100.00
11077;BME280;5591;42.626;23.380;2023-03-16T07:01:53;93540.25;;;1.99;100.00
11077;BME280;5591;42.626;23.380;2023-03-16T07:04:21;93607.31;;;2.26;100.00
11077;BME280;5591;42.626;23.380;2023-03-16T07:06:47;93626.31;;;2.35;100.00
11077;BME280;5591;42.626;23.380;2023-03-16T07:09:15;93649.84;;;2.57;100.00
11077;BME280;5591;42.626;23.380;2023-03-16T07:11:42;93645.72;;;2.72;100.00
11077;BME280;5591;42.626;23.380;2023-03-16T07:14:09;93655.69;;;3.08;100.00
11077;BME280;5591;42.626;23.380;2023-03-16T07:16:36;93636.75;;;2.58;100.00
11077;BME280;5591;42.626;23.380;2023-03-16T07:19:03;93671.50;;;2.81;100.00
11077;BME280;5591;42.626;23.380;2023-03-16T07:21:31;93681.91;;;2.56;100.00
11077;BME280;5591;42.626;23.380;2023-03-16T07:24:03;93678.28;;;2.82;100.00
11077;BME280;5591;42.626;23.380;2023-03-16T07:26:30;93668.34;;;2.70;100.00
11077;BME280;5591;42.626;23.380;2023-03-16T07:28:58;93566.31;;;1.80;100.00
11077;BME280;5591;42.626;23.380;2023-03-16T07:31:25;93666.97;;;2.50;100.00
11077;BME280;5591;42.626;23.380;2023-03-16T07:33:52;93673.34;;;2.63;100.00
11077;BME280;5591;42.626;23.380;2023-03-16T07:36:19;93679.94;;;2.58;100.00
11077;BME280;5591;42.626;23.380;2023-03-16T07:38:50;93681.75;;;2.57;100.00
11077;BME280;5591;42.626;23.380;2023-03-16T07:41:17;93686.38;;;2.46;100.00
11077;BME280;5591;42.626;23.380;2023-03-16T07:43:44;93695.47;;;2.83;100.00
11077;BME280;5591;42.626;23.380;2023-03-16T07:46:10;93683.63;;;2.81;100.00
11077;BME280;5591;42.626;23.380;2023-03-16T07:48:38;93713.13;;;2.88;100.00
11077;BME280;5591;42.626;23.380;2023-03-16T07:51:05;93678.84;;;2.60;100.00
11077;BME280;5591;42.626;23.380;2023-03-16T07:53:31;93688.34;;;3.27;100.00
11077;BME280;5591;42.626;23.380;2023-03-16T07:56:00;93696.81;;;2.95;100.00
11077;BME280;5591;42.626;23.380;2023-03-16T07:58:27;93706.47;;;2.85;100.00
11077;BME280;5591;42.626;23.380;2023-03-16T08:00:55;93686.97;;;3.07;100.00
11077;BME280;5591;42.626;23.380;2023-03-16T08:03:23;93696.44;;;3.32;100.00
11077;BME280;5591;42.626;23.380;2023-03-16T08:05:49;93695.53;;;2.99;100.00
11077;BME280;5591;42.626;23.380;2023-03-16T08:08:16;93723.72;;;3.52;100.00
11077;BME280;5591;42.626;23.380;2023-03-16T08:10:46;93707.84;;;3.63;100.00
11077;BME280;5591;42.626;23.380;2023-03-16T08:13:14;93696.69;;;3.13;100.00
11077;BME280;5591;42.626;23.380;2023-03-16T08:15:45;93713.72;;;3.73;100.00
11077;BME280;5591;42.626;23.380;2023-03-16T08:18:11;93736.16;;;3.32;100.00
11077;BME280;5591;42.626;23.380;2023-03-16T08:20:39;93717.75;;;3.67;100.00
11077;BME280;5591;42.626;23.380;2023-03-16T08:23:06;93728.81;;;3.85;100.00
11077;BME280;5591;42.626;23.380;2023-03-16T08:25:33;93721.66;;;3.63;100.00
11077;BME280;5591;42.626;23.380;2023-03-16T08:28:00;93756.34;;;3.62;100.00
11077;BME280;5591;42.626;23.380;2023-03-16T08:30:28;93748.88;;;3.67;100.00
11077;BME280;5591;42.626;23.380;2023-03-16T08:32:54;93765.56;;;3.65;100.00
11077;BME280;5591;42.626;23.380;2023-03-16T08:35:22;93723.28;;;3.64;100.00
11077;BME280;5591;42.626;23.380;2023-03-16T08:37:48;93712.41;;;3.77;100.00
11077;BME280;5591;42.626;23.380;2023-03-16T08:40:15;93739.03;;;3.79;100.00
11077;BME280;5591;42.626;23.380;2023-03-16T08:42:43;93746.34;;;3.99;100.00
11077;BME280;5591;42.626;23.380;2023-03-16T08:45:11;93745.53;;;4.07;100.00
11077;BME280;5591;42.626;23.380;2023-03-16T08:47:39;93762.84;;;3.82;100.00
11077;BME280;5591;42.626;23.380;2023-03-16T08:50:07;93757.69;;;4.22;100.00
11077;BME280;5591;42.626;23.380;2023-03-16T08:52:34;93761.25;;;3.89;100.00
11077;BME280;5591;42.626;23.380;2023-03-16T08:55:02;93768.22;;;3.81;100.00
11077;BME280;5591;42.626;23.380;2023-03-16T08:57:30;93772.31;;;4.07;100.00
11077;BME280;5591;42.626;23.380;2023-03-16T08:59:57;93751.22;;;4.26;100.00
11077;BME280;5591;42.626;23.380;2023-03-16T09:02:23;93767.13;;;4.39;100.00
11077;BME280;5591;42.626;23.380;2023-03-16T09:04:52;93776.84;;;4.21;100.00
11077;BME280;5591;42.626;23.380;2023-03-16T09:49:04;93780.34;;;3.72;100.00
11077;BME280;5591;42.626;23.380;2023-03-16T09:51:37;93772.31;;;4.07;100.00
11077;BME280;5591;42.626;23.380;2023-03-16T09:54:17;93793.72;;;4.09;100.00
11077;BME280;5591;42.626;23.380;2023-03-16T09:56:47;93802.47;;;4.08;100.00
11077;BME280;5591;42.626;23.380;2023-03-16T09:59:16;93789.13;;;3.79;100.00
11077;BME280;5591;42.626;23.380;2023-03-16T10:01:53;93834.69;;;3.82;100.00
11077;BME280;5591;42.626;23.380;2023-03-16T10:04:37;93796.47;;;4.16;100.00
11077;BME280;5591;42.626;23.380;2023-03-16T10:07:25;93692.16;;;3.88;100.00
11077;BME280;5591;42.626;23.380;2023-03-16T10:09:56;93792.25;;;4.31;100.00
11077;BME280;5591;42.626;23.380;2023-03-16T10:33:16;93777.13;;;3.78;100.00
11077;BME280;5591;42.626;23.380;2023-03-16T10:35:46;93798.75;;;4.11;100.00
11077;BME280;5591;42.626;23.380;2023-03-16T10:38:31;93804.84;;;3.78;100.00
11077;BME280;5591;42.626;23.380;2023-03-16T10:41:04;93819.25;;;3.72;100.00
11077;BME280;5591;42.626;23.380;2023-03-16T10:43:33;93797.31;;;4.16;100.00
11077;BME280;5591;42.626;23.380;2023-03-16T10:46:01;93796.47;;;4.16;100.00
11077;BME280;5591;42.626;23.380;2023-03-16T10:48:30;93798.44;;;4.30;100.00
11077;BME280;5591;42.626;23.380;2023-03-16T10:50:59;93805.75;;;4.34;100.00
11077;BME280;5591;42.626;23.380;2023-03-16T10:53:30;93802.31;;;4.10;100.00
11077;BME280;5591;42.626;23.380;2023-03-16T10:56:08;93795.38;;;4.26;100.00
11077;BME280;5591;42.626;23.380;2023-03-16T13:00:09;93852.13;;;4.13;100.00
11077;BME280;5591;42.626;23.380;2023-03-16T13:02:38;93852.50;;;3.77;100.00
11077;BME280;5591;42.626;23.380;2023-03-16T13:05:09;93828.50;;;3.33;100.00
11077;BME280;5591;42.626;23.380;2023-03-16T13:07:45;93855.38;;;3.66;100.00
11077;BME280;5591;42.626;23.380;2023-03-16T13:10:13;93857.97;;;3.66;100.00
11077;BME280;5591;42.626;23.380;2023-03-16T13:12:42;93857.50;;;3.62;100.00
11077;BME280;5591;42.626;23.380;2023-03-16T13:15:28;93817.53;;;3.47;100.00
11077;BME280;5591;42.626;23.380;2023-03-16T13:20:52;93876.22;;;3.82;100.00
11077;BME280;5591;42.626;23.380;2023-03-16T13:23:21;93868.88;;;3.69;100.00
11077;BME280;5591;42.626;23.380;2023-03-16T13:26:11;93862.47;;;3.56;100.00
11077;BME280;5591;42.626;23.380;2023-03-16T13:28:41;93882.72;;;3.86;100.00
11077;BME280;5591;42.626;23.380;2023-03-16T13:31:23;93880.53;;;3.65;100.00
11077;BME280;5591;42.626;23.380;2023-03-16T13:33:52;93866.91;;;3.63;100.00
11077;BME280;5591;42.626;23.380;2023-03-16T13:36:21;93877.81;;;3.75;100.00
11077;BME280;5591;42.626;23.380;2023-03-16T13:38:59;93872.25;;;4.11;100.00
11077;BME280;5591;42.626;23.380;2023-03-16T13:41:28;93893.78;;;3.54;100.00
11077;BME280;5591;42.626;23.380;2023-03-16T13:43:56;93864.28;;;3.55;100.00
11077;BME280;5591;42.626;23.380;2023-03-16T13:46:28;93883.44;;;3.62;100.00
11077;BME280;5591;42.626;23.380;2023-03-16T13:48:57;93888.41;;;3.89;100.00
11077;BME280;5591;42.626;23.380;2023-03-16T13:51:24;93887.09;;;3.85;100.00
11077;BME280;5591;42.626;23.380;2023-03-16T13:53:51;93884.88;;;3.98;100.00
11077;BME280;5591;42.626;23.380;2023-03-16T13:56:21;93879.66;;;3.90;100.00
11077;BME280;5591;42.626;23.380;2023-03-16T13:58:51;93837.50;;;3.47;100.00
11077;BME280;5591;42.626;23.380;2023-03-16T14:01:23;93892.78;;;3.89;100.00
11077;BME280;5591;42.626;23.380;2023-03-16T14:03:55;93881.13;;;3.93;100.00
11077;BME280;5591;42.626;23.380;2023-03-16T14:06:25;93872.03;;;3.89;100.00
11077;BME280;5591;42.626;23.380;2023-03-16T14:08:55;93890.63;;;3.76;100.00
11077;BME280;5591;42.626;23.380;2023-03-16T14:11:25;93888.81;;;3.69;100.00
11077;BME280;5591;42.626;23.380;2023-03-16T14:13:53;93912.78;;;3.63;100.00
11077;BME280;5591;42.626;23.380;2023-03-16T14:16:22;93913.59;;;3.63;100.00
11077;BME280;5591;42.626;23.380;2023-03-16T14:18:53;93905.50;;;3.66;100.00
11077;BME280;5591;42.626;23.380;2023-03-16T14:21:24;93867.16;;;3.19;100.00
11077;BME280;5591;42.626;23.380;2023-03-16T14:23:53;93900.47;;;3.65;100.00
11077;BME280;5591;42.626;23.380;2023-03-16T14:26:23;93912.53;;;3.48;100.00
11077;BME280;5591;42.626;23.380;2023-03-16T14:28:54;93925.09;;;3.61;100.00
11077;BME280;5591;42.626;23.380;2023-03-16T14:31:30;93927.75;;;3.77;100.00
11077;BME280;5591;42.626;23.380;2023-03-16T14:34:01;93936.31;;;3.44;100.00
11077;BME280;5591;42.626;23.380;2023-03-16T14:36:34;93918.84;;;3.79;100.00
11077;BME280;5591;42.626;23.380;2023-03-16T14:39:09;93919.72;;;3.54;100.00
11077;BME280;5591;42.626;23.380;2023-03-16T14:41:37;93932.16;;;3.76;100.00
11077;BME280;5591;42.626;23.380;2023-03-16T14:44:04;93945.28;;;3.24;100.00
11077;BME280;5591;42.626;23.380;2023-03-16T14:46:33;93932.53;;;3.30;100.00
11077;BME280;5591;42.626;23.380;2023-03-16T14:49:13;93926.97;;;3.51;100.00
11077;BME280;5591;42.626;23.380;2023-03-16T14:51:45;93937.59;;;3.65;100.00
11077;BME280;5591;42.626;23.380;2023-03-16T14:54:14;93931.47;;;3.41;100.00
11077;BME280;5591;42.626;23.380;2023-03-16T14:56:42;93929.19;;;3.38;100.00
11077;BME280;5591;42.626;23.380;2023-03-16T14:59:09;93939.09;;;3.17;100.00
11077;BME280;5591;42.626;23.380;2023-03-16T15:01:36;93981.75;;;3.05;100.00
11077;BME280;5591;42.626;23.380;2023-03-16T15:04:06;93944.13;;;3.01;100.00
11077;BME280;5591;42.626;23.380;2023-03-16T15:06:33;93947.44;;;3.11;100.00
11077;BME280;5591;42.626;23.380;2023-03-16T15:09:00;93951.53;;;3.13;100.00
11077;BME280;5591;42.626;23.380;2023-03-16T15:11:27;93958.22;;;2.98;100.00
11077;BME280;5591;42.626;23.380;2023-03-16T15:13:56;93962.69;;;3.14;100.00
11077;BME280;5591;42.626;23.380;2023-03-16T15:16:38;93959.44;;;3.12;100.00
11077;BME280;5591;42.626;23.380;2023-03-16T15:19:07;93954.72;;;3.07;100.00
11077;BME280;5591;42.626;23.380;2023-03-16T15:21:34;93961.25;;;3.37;100.00
11077;BME280;5591;42.626;23.380;2023-03-16T15:24:01;93960.94;;;3.14;100.00
11077;BME280;5591;42.626;23.380;2023-03-16T15:26:28;93947.63;;;2.92;100.00
11077;BME280;5591;42.626;23.380;2023-03-16T15:28:56;93968.81;;;3.05;100.00
11077;BME280;5591;42.626;23.380;2023-03-16T15:31:23;93956.63;;;3.05;100.00
11077;BME280;5591;42.626;23.380;2023-03-16T15:33:51;93979.13;;;3.22;100.00
11077;BME280;5591;42.626;23.380;2023-03-16T15:36:20;93983.84;;;2.84;100.00
11077;BME280;5591;42.626;23.380;2023-03-16T15:38:50;93975.03;;;2.77;100.00
11077;BME280;5591;42.626;23.380;2023-03-16T15:41:17;93987.66;;;2.97;100.00
11077;BME280;5591;42.626;23.380;2023-03-16T15:43:44;93988.63;;;2.96;100.00
11077;BME280;5591;42.626;23.380;2023-03-16T15:46:11;93976.50;;;2.97;100.00
11077;BME280;5591;42.626;23.380;2023-03-16T15:48:39;93988.72;;;3.04;100.00
11077;BME280;5591;42.626;23.380;2023-03-16T15:51:07;93981.16;;;2.93;100.00
11077;BME280;5591;42.626;23.380;2023-03-16T15:53:38;93992.59;;;2.83;100.00
11077;BME280;5591;42.626;23.380;2023-03-16T15:56:08;93981.75;;;3.05;100.00
11077;BME280;5591;42.626;23.380;2023-03-16T15:58:39;94008.84;;;2.75;100.00
11077;BME280;5591;42.626;23.380;2023-03-16T16:01:07;94009.34;;;2.79;100.00
11077;BME280;5591;42.626;23.380;2023-03-16T16:03:38;94002.88;;;2.48;100.00
11077;BME280;5591;42.626;23.380;2023-03-16T16:06:08;94005.97;;;2.78;100.00
11077;BME280;5591;42.626;23.380;2023-03-16T16:08:37;94021.00;;;2.75;100.00
11077;BME280;5591;42.626;23.380;2023-03-16T16:11:09;94008.34;;;2.72;100.00
11077;BME280;5591;42.626;23.380;2023-03-16T16:13:38;94000.56;;;2.28;100.00
11077;BME280;5591;42.626;23.380;2023-03-16T16:16:07;94025.44;;;2.82;100.00
11077;BME280;5591;42.626;23.380;2023-03-16T16:18:34;94020.25;;;2.82;100.00